Kalamazoo, MI

7:17 PM EDT on August 24, 2016 (GMT -0400)
Lawndale Ave | | Change Station
Active Advisory: Flood Warning

Elev 801 ft 42.28 °N, 85.48 °W | Updated 10 seconds ago

Light Rain
Light Rain
79.0 °F
Feels Like 83 °F
N
0.0
Wind Variable Wind from SSW
Gusts 0.0 mph

Today
High -- | Low -- °F
--% Chance of Precip.
Yesterday
High -- | Low -- °F
Precip. -- in
Pressure 29.93 in
Visibility 9.0 miles
Clouds Few 2500 ft
Mostly Cloudy 3400 ft
Mostly Cloudy 4500 ft
Heat Index 83 °F
Dew Point 76 °F
Humidity 89%
Rainfall 0.00 in
Snow Depth Not available.
6:59 AM 8:28 PM
Waning Gibbous, 52% visible
METAR KAZO 242253Z 20005KT 9SM -RA FEW025 BKN034 BKN045 26/22 A2994 RMK AO2 RAB48 SLP135 P0000 T02610222
Pressure 29.93 in
Visibility 9.0 miles
Clouds Few 2500 ft
Mostly Cloudy 3400 ft
Mostly Cloudy 4500 ft
Heat Index 83 °F
Dew Point 76 °F
Humidity 89%
Rainfall 0.00 in
Snow Depth Not available.
6:59 AM 8:28 PM
Waning Gibbous, 52% visible
METAR KAZO 242253Z 20005KT 9SM -RA FEW025 BKN034 BKN045 26/22 A2994 RMK AO2 RAB48 SLP135 P0000 T02610222

10-Day Weather Forecast

Almanac

Astronomy

Aug. 24, 2016 Rise Set
Actual Time
Civil Twilight
Nautical Twilight
Astronomical Twilight
Moon
Length of Visible Light
Length of Day
Tomorrow will be .
, % of the Moon is Illuminated

Today's Extremes

State Highs State Lows

Community

WunderPhotos

Upload Photos

1,934,731 photos uploaded!

WunderBlog® & News

Nearby

Air Quality

  Air Quality AQ Index Pollutant
Not available.

Snow Depth

Station Depth Elevation

Earthquake Activity

City Distance Mag. Time & Date
Minimum magnitude displayed is 2.5.

Coastal Water Temperatures

Place Temperature

Stations

Nearby Weather Stations

Station Location Temp. Windchill Dew Point Humidity Wind Precip. Elev Updated Type
                   

Watches & Warnings

Flood Warning
Issued: 10:44 AM EDT Aug. 24, 2016 – National Weather Service

The Flood Warning continues for
the Portage River near Vicksburg.
* Until Friday morning.
* At 10:30 am Wednesday the stage was 5.2 feet.
* Flood stage is 5.0 feet.
* Minor flooding is occurring and minor flooding is forecast.
* Forecast, the river will continue to fall below flood stage by
tomorrow morning.
* Impact, at 5.0 feet... expect overflows into wooded areas and
farmland adjacent to the river
* flood history, this crest compares to a previous crest of 5.0 feet
on Apr 20 2013.


Lat... Lon 4208 8547 4211 8544 4216 8544 4215 8548
      4211 8553 4208 8552


63